createdAt,value
2023-03-29T00:00:35.957Z,-2.94
2023-03-29T00:03:17.231Z,-2.98
2023-03-29T00:05:45.407Z,-3.01
2023-03-29T00:08:14.974Z,-3.03
2023-03-29T00:10:43.128Z,-3.04
2023-03-29T00:13:11.292Z,-3.05
2023-03-29T00:15:39.462Z,-3.06
2023-03-29T00:18:07.728Z,-3.07
2023-03-29T00:20:35.990Z,-3.08
2023-03-29T00:23:04.222Z,-3.11
2023-03-29T00:25:32.303Z,-3.14
2023-03-29T00:28:00.575Z,-3.15
2023-03-29T00:30:28.828Z,-3.16
2023-03-29T00:32:57.423Z,-3.15
2023-03-29T00:35:25.791Z,-3.13
2023-03-29T00:37:54.321Z,-3.12
2023-03-29T00:40:22.550Z,-3.15
2023-03-29T00:42:50.669Z,-3.18
2023-03-29T00:45:22.698Z,-3.21
2023-03-29T00:47:57.407Z,-3.26
2023-03-29T00:50:31.033Z,-3.28
2023-03-29T00:53:21.933Z,-3.30
2023-03-29T00:55:56.955Z,-3.28
2023-03-29T00:58:30.808Z,-3.29
2023-03-29T01:01:11.743Z,-3.36
2023-03-29T01:03:48.639Z,-3.44
2023-03-29T01:06:21.076Z,-3.43
2023-03-29T01:09:01.464Z,-3.43
2023-03-29T01:11:35.303Z,-3.47
2023-03-29T01:14:06.495Z,-3.50
2023-03-29T01:19:10.500Z,-3.50
2023-03-29T01:21:49.518Z,-3.49
2023-03-29T01:24:33.958Z,-3.49
2023-03-29T01:27:39.135Z,-3.52
2023-03-29T01:30:17.506Z,-3.62
2023-03-29T01:33:00.472Z,-3.58
2023-03-29T01:35:28.612Z,-3.62
2023-03-29T01:38:10.510Z,-3.62
2023-03-29T01:40:38.641Z,-3.63
2023-03-29T01:43:17.640Z,-3.66
2023-03-29T01:46:19.182Z,-3.69
2023-03-29T01:49:27.932Z,-3.69
2023-03-29T01:52:05.752Z,-3.70
2023-03-29T01:54:41.546Z,-3.69
2023-03-29T01:57:10.774Z,-3.71
2023-03-29T01:59:42.553Z,-3.73
2023-03-29T02:02:14.964Z,-3.78
2023-03-29T02:04:51.867Z,-3.77
2023-03-29T02:07:25.185Z,-3.80
2023-03-29T02:09:54.389Z,-3.79
2023-03-29T02:12:22.828Z,-3.83
2023-03-29T02:14:51.029Z,-3.75
2023-03-29T02:17:25.683Z,-3.75
2023-03-29T02:20:22.687Z,-3.75
2023-03-29T02:23:02.501Z,-3.77
2023-03-29T02:25:32.642Z,-3.81
2023-03-29T02:28:01.823Z,-3.83
2023-03-29T02:30:42.575Z,-3.84
2023-03-29T02:33:59.553Z,-3.87
2023-03-29T02:36:38.403Z,-3.93
2023-03-29T02:39:09.950Z,-3.95
2023-03-29T02:41:39.006Z,-3.94
2023-03-29T02:44:10.765Z,-3.93
2023-03-29T02:46:39.107Z,-3.93
2023-03-29T02:49:07.276Z,-3.93
2023-03-29T02:51:38.561Z,-3.94
2023-03-29T02:54:13.836Z,-3.93
2023-03-29T02:56:43.770Z,-3.94
2023-03-29T02:59:12.808Z,-3.96
2023-03-29T03:01:45.822Z,-3.95
2023-03-29T03:04:15.552Z,-3.96
2023-03-29T03:06:44.030Z,-4.02
2023-03-29T03:09:12.466Z,-3.95
2023-03-29T03:11:42.580Z,-3.94
2023-03-29T03:14:11.038Z,-3.90
2023-03-29T03:16:39.258Z,-3.91
2023-03-29T03:19:07.705Z,-3.92
2023-03-29T03:21:37.824Z,-3.91
2023-03-29T03:24:07.757Z,-3.90
2023-03-29T03:26:38.324Z,-3.93
2023-03-29T03:29:06.650Z,-3.95
2023-03-29T03:31:54.230Z,-3.95
2023-03-29T03:34:40.953Z,-3.93
2023-03-29T03:37:12.071Z,-3.94
2023-03-29T03:39:40.440Z,-3.98
2023-03-29T03:42:09.729Z,-4.00
2023-03-29T03:44:43.311Z,-4.05
2023-03-29T03:47:32.040Z,-4.08
2023-03-29T03:50:09.250Z,-4.11
2023-03-29T03:52:37.518Z,-4.11
2023-03-29T03:55:06.318Z,-4.09
2023-03-29T03:57:48.073Z,-4.09
2023-03-29T04:00:21.429Z,-4.09
2023-03-29T04:03:12.652Z,-4.10
2023-03-29T04:05:44.708Z,-4.10
2023-03-29T04:08:15.003Z,-4.13
2023-03-29T04:11:19.127Z,-4.08
2023-03-29T04:13:47.489Z,-4.06
2023-03-29T04:16:27.518Z,-4.06
2023-03-29T04:18:56.772Z,-4.08
2023-03-29T04:21:25.631Z,-4.10
2023-03-29T04:23:54.211Z,-4.11
2023-03-29T04:26:23.107Z,-4.15
2023-03-29T04:28:57.633Z,-4.21
2023-03-29T04:31:42.042Z,-4.42
2023-03-29T04:34:28.008Z,-4.24
2023-03-29T04:36:58.860Z,-4.24
2023-03-29T04:39:34.056Z,-4.25
2023-03-29T04:42:05.304Z,-4.25
2023-03-29T04:44:35.190Z,-4.24
2023-03-29T04:47:05.159Z,-4.25
2023-03-29T04:49:56.256Z,-4.26
2023-03-29T04:52:33.508Z,-4.24
2023-03-29T04:55:03.352Z,-4.21
2023-03-29T04:57:44.747Z,-4.17
2023-03-29T05:00:27.796Z,-4.16
2023-03-29T05:03:14.749Z,-4.15
2023-03-29T05:05:54.695Z,-4.11
2023-03-29T05:08:22.870Z,-4.04
2023-03-29T05:11:10.958Z,-4.00
2023-03-29T05:13:40.106Z,-3.95
2023-03-29T05:16:08.944Z,-3.92
2023-03-29T05:18:37.159Z,-3.90
2023-03-29T05:21:06.454Z,-3.82
2023-03-29T05:23:35.162Z,-3.74
2023-03-29T05:26:10.069Z,-3.67
2023-03-29T05:28:39.597Z,-3.55
2023-03-29T05:31:08.964Z,-3.47
2023-03-29T05:33:40.097Z,-3.38
2023-03-29T05:36:13.950Z,-3.26
2023-03-29T05:38:46.896Z,-3.16
2023-03-29T05:41:16.166Z,-3.07
2023-03-29T05:43:46.968Z,-2.97
2023-03-29T05:46:15.564Z,-2.86
2023-03-29T05:48:49.116Z,-2.80
2023-03-29T05:51:19.036Z,-2.61
2023-03-29T05:53:47.253Z,-2.53
2023-03-29T05:56:16.500Z,-2.51
2023-03-29T05:58:46.805Z,-2.35
2023-03-29T06:01:18.068Z,-2.25
2023-03-29T06:03:56.465Z,-2.16
2023-03-29T06:06:29.578Z,-2.06
2023-03-29T06:09:01.411Z,-1.96
2023-03-29T06:11:36.916Z,-1.86
2023-03-29T06:14:11.134Z,-1.75
2023-03-29T06:16:47.228Z,-1.64
2023-03-29T06:19:15.630Z,-1.52
2023-03-29T06:21:43.893Z,-1.42
2023-03-29T06:24:14.652Z,-1.38
2023-03-29T06:26:47.278Z,-1.29
2023-03-29T06:29:16.104Z,-1.33
2023-03-29T06:31:44.449Z,-1.08
2023-03-29T06:34:24.102Z,-0.97
2023-03-29T06:37:15.236Z,-0.92
2023-03-29T06:39:43.923Z,-0.86
2023-03-29T06:42:27.301Z,-0.70
2023-03-29T06:45:36.818Z,-0.64
2023-03-29T06:48:08.245Z,-0.57
2023-03-29T06:50:37.038Z,-0.48
2023-03-29T06:53:26.402Z,-0.39
2023-03-29T06:56:05.499Z,-0.30
2023-03-29T06:58:56.925Z,-0.20
2023-03-29T07:01:34.834Z,-0.10
2023-03-29T07:04:12.306Z,0.00
2023-03-29T07:07:06.198Z,0.04
2023-03-29T07:09:36.069Z,0.03
2023-03-29T07:12:23.217Z,0.18
2023-03-29T07:14:51.550Z,0.28
2023-03-29T07:17:19.844Z,0.35
2023-03-29T07:19:48.966Z,0.38
2023-03-29T07:22:48.348Z,0.36
2023-03-29T07:25:18.788Z,0.42
2023-03-29T07:27:47.285Z,0.51
2023-03-29T07:30:18.529Z,0.58
2023-03-29T07:32:47.434Z,0.66
2023-03-29T07:35:26.970Z,0.74
2023-03-29T07:37:56.009Z,0.82
2023-03-29T07:40:26.413Z,0.92
2023-03-29T07:42:58.933Z,1.02
2023-03-29T07:45:32.120Z,1.06
2023-03-29T07:48:11.196Z,1.13
2023-03-29T07:50:53.938Z,1.22
2023-03-29T07:53:27.278Z,1.26
2023-03-29T07:55:56.360Z,1.48
2023-03-29T07:58:44.841Z,1.66
2023-03-29T08:01:18.712Z,1.75
2023-03-29T08:04:11.694Z,1.94
2023-03-29T08:06:58.885Z,2.12
2023-03-29T08:09:35.274Z,2.23
2023-03-29T08:12:03.600Z,2.19
2023-03-29T08:14:36.780Z,2.20
2023-03-29T08:17:14.629Z,2.28
2023-03-29T08:19:51.400Z,2.36
2023-03-29T08:22:23.451Z,2.46
2023-03-29T08:25:20.654Z,2.61
2023-03-29T08:27:50.924Z,2.70
2023-03-29T08:30:28.472Z,2.82
2023-03-29T08:32:58.188Z,2.88
2023-03-29T08:35:26.654Z,3.06
2023-03-29T08:38:06.380Z,3.22
2023-03-29T08:40:35.434Z,3.40
2023-03-29T08:43:49.003Z,3.57
2023-03-29T08:46:45.241Z,3.78
2023-03-29T08:49:29.726Z,4.01
2023-03-29T08:52:03.017Z,4.22
2023-03-29T08:54:45.224Z,4.42
2023-03-29T08:57:40.591Z,4.65
2023-03-29T09:00:21.855Z,4.84
2023-03-29T09:02:53.985Z,4.97
2023-03-29T09:05:30.177Z,5.12
2023-03-29T09:08:13.706Z,5.41
2023-03-29T09:11:16.413Z,5.78
2023-03-29T09:13:54.180Z,6.07
2023-03-29T09:16:53.188Z,6.42
2023-03-29T09:19:51.059Z,6.59
2023-03-29T09:22:37.477Z,6.72
2023-03-29T09:25:05.724Z,6.97
2023-03-29T09:27:43.527Z,7.20
2023-03-29T09:30:41.946Z,7.55
2023-03-29T09:33:24.827Z,7.86
2023-03-29T09:36:17.783Z,8.20
2023-03-29T09:38:49.809Z,8.46
2023-03-29T09:41:47.015Z,8.87
2023-03-29T09:44:30.794Z,9.17
2023-03-29T09:47:12.615Z,9.34
2023-03-29T09:49:47.237Z,9.54
2023-03-29T09:52:17.415Z,9.82
2023-03-29T09:54:52.535Z,10.09
2023-03-29T09:57:50.208Z,10.39
2023-03-29T10:00:20.748Z,10.65
2023-03-29T10:02:52.975Z,10.76
2023-03-29T10:05:26.110Z,10.90
2023-03-29T10:07:59.758Z,11.01
2023-03-29T10:10:29.343Z,11.20
2023-03-29T10:13:01.098Z,11.39
2023-03-29T10:15:30.771Z,11.49
2023-03-29T10:18:06.858Z,11.34
2023-03-29T10:20:36.745Z,11.64
2023-03-29T10:23:08.332Z,12.04
2023-03-29T10:25:43.000Z,12.07
2023-03-29T10:28:16.493Z,11.93
2023-03-29T10:30:52.514Z,12.10
2023-03-29T10:33:24.736Z,12.51
2023-03-29T10:35:57.364Z,12.86
2023-03-29T10:38:29.526Z,13.09
2023-03-29T10:41:12.205Z,13.22
2023-03-29T10:43:46.314Z,13.28
2023-03-29T10:46:32.784Z,13.35
2023-03-29T10:49:06.343Z,13.38
2023-03-29T10:51:34.617Z,13.57
2023-03-29T10:54:05.430Z,13.61
2023-03-29T10:56:43.191Z,13.57
2023-03-29T10:59:27.619Z,13.38
2023-03-29T11:02:14.189Z,13.21
2023-03-29T11:05:17.918Z,13.34
2023-03-29T11:08:07.186Z,13.63
2023-03-29T11:10:53.792Z,13.75
2023-03-29T11:13:53.515Z,13.78
2023-03-29T11:16:42.865Z,13.64
2023-03-29T11:19:44.374Z,13.29
2023-03-29T11:22:47.893Z,13.18
2023-03-29T11:25:38.485Z,13.23
2023-03-29T11:28:29.563Z,13.46
2023-03-29T11:31:16.925Z,13.56
2023-03-29T11:34:06.773Z,13.67
2023-03-29T11:36:50.580Z,13.75
2023-03-29T11:39:34.861Z,13.80
2023-03-29T11:42:19.590Z,13.97
2023-03-29T11:44:54.646Z,14.09
2023-03-29T11:47:37.453Z,14.12
2023-03-29T11:50:20.845Z,14.36
2023-03-29T11:52:56.735Z,14.36
2023-03-29T11:55:32.259Z,14.34
2023-03-29T11:58:06.638Z,14.62
2023-03-29T12:00:37.623Z,14.82
2023-03-29T12:03:17.718Z,14.98
2023-03-29T12:05:55.767Z,14.70
2023-03-29T12:08:44.376Z,14.70
2023-03-29T12:11:37.466Z,14.96
2023-03-29T12:14:15.420Z,15.30
2023-03-29T12:17:09.389Z,15.44
2023-03-29T12:19:46.819Z,14.98
2023-03-29T12:22:15.065Z,14.97
2023-03-29T12:24:50.618Z,14.87
2023-03-29T12:27:28.588Z,14.88
2023-03-29T12:30:15.806Z,15.15
2023-03-29T12:32:57.896Z,15.47
2023-03-29T12:36:17.459Z,15.45
2023-03-29T12:39:13.908Z,15.40
2023-03-29T12:42:17.224Z,15.76
2023-03-29T12:45:19.269Z,15.99
2023-03-29T12:47:51.035Z,16.10
2023-03-29T12:50:28.706Z,16.12
2023-03-29T12:53:16.788Z,16.60
2023-03-29T12:55:44.824Z,16.64
2023-03-29T12:58:40.714Z,16.71
2023-03-29T13:01:10.790Z,16.81
2023-03-29T13:03:55.548Z,16.90
2023-03-29T13:06:51.182Z,17.16
2023-03-29T13:09:24.098Z,16.83
2023-03-29T13:11:57.542Z,16.10
2023-03-29T13:14:30.404Z,15.50
2023-03-29T13:17:17.826Z,14.79
2023-03-29T13:20:31.497Z,14.17
2023-03-29T13:23:27.435Z,14.08
2023-03-29T13:26:34.662Z,14.44
2023-03-29T13:29:03.668Z,14.09
2023-03-29T13:31:46.815Z,13.63
2023-03-29T13:35:04.654Z,12.84
2023-03-29T13:38:00.288Z,12.17
2023-03-29T13:40:31.991Z,12.01
2023-03-29T13:43:19.323Z,12.79
2023-03-29T13:45:59.258Z,13.39
2023-03-29T13:48:29.169Z,13.55
2023-03-29T13:51:31.834Z,13.61
2023-03-29T13:54:18.323Z,13.59
2023-03-29T13:56:55.171Z,13.33
2023-03-29T13:59:33.779Z,12.93
2023-03-29T14:02:04.700Z,12.42
2023-03-29T14:04:43.860Z,12.03
2023-03-29T14:07:15.687Z,12.41
2023-03-29T14:09:48.122Z,12.65
2023-03-29T14:12:17.472Z,13.07
2023-03-29T14:14:58.251Z,13.04
2023-03-29T14:17:27.803Z,13.00
2023-03-29T14:19:59.344Z,12.81
2023-03-29T14:22:34.052Z,12.54
2023-03-29T14:25:07.744Z,12.20
2023-03-29T14:27:37.251Z,11.80
2023-03-29T14:30:37.138Z,11.27
2023-03-29T14:33:05.346Z,10.93
2023-03-29T14:35:33.725Z,10.52
2023-03-29T14:38:02.518Z,10.11
2023-03-29T14:40:31.662Z,9.80
2023-03-29T14:43:06.802Z,9.89
2023-03-29T14:45:35.500Z,10.08
2023-03-29T14:48:04.799Z,10.26
2023-03-29T14:50:33.916Z,10.16
2023-03-29T14:53:02.322Z,10.19
2023-03-29T14:55:31.093Z,10.21
2023-03-29T14:58:17.132Z,10.03
2023-03-29T15:00:50.212Z,9.85
2023-03-29T15:03:19.978Z,9.62
2023-03-29T15:05:52.086Z,9.37
2023-03-29T15:08:27.472Z,9.26
2023-03-29T15:10:55.851Z,9.14
2023-03-29T15:13:25.433Z,8.94
2023-03-29T15:16:01.596Z,8.77
2023-03-29T15:18:40.178Z,8.65
2023-03-29T15:21:10.257Z,8.57
2023-03-29T15:23:55.042Z,8.48
2023-03-29T15:26:26.929Z,8.55
2023-03-29T15:29:03.200Z,8.49
2023-03-29T15:31:39.734Z,8.50
2023-03-29T15:34:10.483Z,8.45
2023-03-29T15:36:42.354Z,8.43
2023-03-29T15:39:15.732Z,8.34
2023-03-29T15:41:46.492Z,8.28
2023-03-29T15:44:23.104Z,8.23
2023-03-29T15:46:51.290Z,8.09
2023-03-29T15:49:19.442Z,8.06
2023-03-29T15:51:47.765Z,7.98
2023-03-29T15:54:16.130Z,7.95
2023-03-29T15:57:03.571Z,7.92
2023-03-29T15:59:32.368Z,7.86
2023-03-29T16:02:01.146Z,7.78
2023-03-29T16:04:29.233Z,7.64
2023-03-29T16:06:57.933Z,7.68
2023-03-29T16:09:26.028Z,7.65
2023-03-29T16:11:54.239Z,7.61
2023-03-29T16:14:23.202Z,7.56
2023-03-29T16:16:52.570Z,7.55
2023-03-29T16:19:21.708Z,7.55
2023-03-29T16:21:50.360Z,7.53
2023-03-29T16:24:25.125Z,7.50
2023-03-29T16:26:55.862Z,7.44
2023-03-29T16:29:25.536Z,7.44
2023-03-29T16:31:54.363Z,7.42
2023-03-29T16:34:23.200Z,7.40
2023-03-29T16:36:53.100Z,7.39
2023-03-29T16:39:21.602Z,7.39
2023-03-29T16:41:50.456Z,7.38
2023-03-29T16:44:23.819Z,7.35
2023-03-29T16:46:54.440Z,7.33
2023-03-29T16:49:24.336Z,7.31
2023-03-29T16:51:52.594Z,7.25
2023-03-29T16:54:20.743Z,7.22
2023-03-29T16:56:49.074Z,7.19
2023-03-29T16:59:17.248Z,7.17
2023-03-29T17:01:46.052Z,7.13
2023-03-29T17:04:14.291Z,7.11
2023-03-29T17:06:42.819Z,7.08
2023-03-29T17:09:11.066Z,7.03
2023-03-29T17:11:39.562Z,6.99
2023-03-29T17:14:07.791Z,6.96
2023-03-29T17:16:35.930Z,6.95
2023-03-29T17:19:04.136Z,6.92
2023-03-29T17:21:32.369Z,6.89
2023-03-29T17:24:00.455Z,6.86
2023-03-29T17:26:28.655Z,6.83
2023-03-29T17:28:56.779Z,6.81
2023-03-29T17:31:24.956Z,6.81
2023-03-29T17:33:53.124Z,6.80
2023-03-29T17:36:24.247Z,6.79
2023-03-29T17:38:52.516Z,6.77
2023-03-29T17:41:21.588Z,6.69
2023-03-29T17:43:51.110Z,6.66
2023-03-29T17:46:23.043Z,6.68
2023-03-29T17:48:51.568Z,6.67
2023-03-29T17:51:20.363Z,6.74
2023-03-29T17:53:48.492Z,6.73
2023-03-29T17:56:17.144Z,6.73
2023-03-29T17:58:45.460Z,6.73
2023-03-29T18:01:14.528Z,6.72
2023-03-29T18:03:43.268Z,6.70
2023-03-29T18:06:12.064Z,6.71
2023-03-29T18:08:41.650Z,6.69
2023-03-29T18:11:12.373Z,6.68
2023-03-29T18:13:41.206Z,6.63
2023-03-29T18:16:09.938Z,6.59
2023-03-29T18:18:38.653Z,6.60
2023-03-29T18:21:10.178Z,6.58
2023-03-29T18:23:43.354Z,6.57
2023-03-29T18:26:12.335Z,6.56
2023-03-29T18:28:41.658Z,6.52
2023-03-29T18:31:09.985Z,6.39
2023-03-29T18:33:38.127Z,6.47
2023-03-29T18:36:10.724Z,6.45
2023-03-29T18:38:43.410Z,6.42
2023-03-29T18:41:13.731Z,6.39
2023-03-29T18:43:43.255Z,6.36
2023-03-29T18:46:11.541Z,6.36
2023-03-29T18:48:39.924Z,6.33
2023-03-29T18:51:10.011Z,6.31
2023-03-29T18:53:39.342Z,6.31
2023-03-29T18:56:08.198Z,6.31
2023-03-29T18:58:36.698Z,6.29
2023-03-29T19:01:06.355Z,6.22
2023-03-29T19:03:35.237Z,6.29
2023-03-29T19:06:04.925Z,6.28
2023-03-29T19:08:34.623Z,6.27
2023-03-29T19:11:04.908Z,6.27
2023-03-29T19:13:33.223Z,6.26
2023-03-29T19:16:02.037Z,6.25
2023-03-29T19:18:30.454Z,6.23
2023-03-29T19:20:58.613Z,6.19
2023-03-29T19:23:28.387Z,6.20
2023-03-29T19:25:58.800Z,6.19
2023-03-29T19:28:27.639Z,6.19
2023-03-29T19:30:56.886Z,6.17
2023-03-29T19:33:25.116Z,6.16
2023-03-29T19:35:53.319Z,6.14
2023-03-29T19:38:21.788Z,6.12
2023-03-29T19:40:51.626Z,6.09
2023-03-29T19:43:20.837Z,6.08
2023-03-29T19:45:50.800Z,6.06
2023-03-29T19:48:23.878Z,5.88
2023-03-29T19:50:52.539Z,6.02
2023-03-29T19:53:21.348Z,5.93
2023-03-29T19:55:49.676Z,6.00
2023-03-29T19:58:17.801Z,5.99
2023-03-29T20:00:46.822Z,5.99
2023-03-29T20:03:15.809Z,5.97
2023-03-29T20:05:44.203Z,5.96
2023-03-29T20:08:12.391Z,5.94
2023-03-29T20:10:40.529Z,5.93
2023-03-29T20:13:08.723Z,5.91
2023-03-29T20:15:37.130Z,5.90
2023-03-29T20:18:06.094Z,5.89
2023-03-29T20:20:35.807Z,5.87
2023-03-29T20:23:05.415Z,5.87
2023-03-29T20:25:36.311Z,5.87
2023-03-29T20:28:04.885Z,5.84
2023-03-29T20:30:33.245Z,5.83
2023-03-29T20:33:01.498Z,5.81
2023-03-29T20:35:29.661Z,5.79
2023-03-29T20:37:57.751Z,5.77
2023-03-29T20:40:26.077Z,5.78
2023-03-29T20:42:54.372Z,5.77
2023-03-29T20:45:22.567Z,5.68
2023-03-29T20:47:57.696Z,5.74
2023-03-29T20:50:26.635Z,5.73
2023-03-29T20:52:55.910Z,5.71
2023-03-29T20:55:24.715Z,5.69
2023-03-29T20:57:59.340Z,5.66
2023-03-29T21:00:30.078Z,5.63
2023-03-29T21:03:03.554Z,5.61
2023-03-29T21:05:33.754Z,5.59
2023-03-29T21:08:02.875Z,5.56
2023-03-29T21:10:31.208Z,5.54
2023-03-29T21:13:02.739Z,5.51
2023-03-29T21:15:32.133Z,5.49
2023-03-29T21:18:00.411Z,5.47
2023-03-29T21:20:28.538Z,5.44
2023-03-29T21:22:57.197Z,5.42
2023-03-29T21:25:25.451Z,5.38
2023-03-29T21:27:53.595Z,5.38
2023-03-29T21:30:21.946Z,5.37
2023-03-29T21:32:50.136Z,5.36
2023-03-29T21:35:18.346Z,5.36
2023-03-29T21:37:46.476Z,5.34
2023-03-29T21:40:14.601Z,5.35
2023-03-29T21:42:42.703Z,5.34
2023-03-29T21:45:11.487Z,5.34
2023-03-29T21:47:39.908Z,5.34
2023-03-29T21:50:08.327Z,5.33
2023-03-29T21:52:37.892Z,5.33
2023-03-29T21:55:06.836Z,5.32
2023-03-29T21:57:35.236Z,5.23
2023-03-29T22:00:11.019Z,5.21
2023-03-29T22:02:40.482Z,5.23
2023-03-29T22:05:09.272Z,5.18
2023-03-29T22:07:40.377Z,5.30
2023-03-29T22:10:12.211Z,5.28
2023-03-29T22:12:41.524Z,5.27
2023-03-29T22:15:15.053Z,5.26
2023-03-29T22:17:43.189Z,5.23
2023-03-29T22:20:14.609Z,5.21
2023-03-29T22:22:49.884Z,5.20
2023-03-29T22:25:19.387Z,5.20
2023-03-29T22:27:48.642Z,5.20
2023-03-29T22:30:17.946Z,5.13
2023-03-29T22:32:46.183Z,5.21
2023-03-29T22:35:14.567Z,5.13
2023-03-29T22:37:45.891Z,5.22
2023-03-29T22:40:14.180Z,5.20
2023-03-29T22:42:42.530Z,5.21
2023-03-29T22:45:11.131Z,5.21
2023-03-29T22:47:39.454Z,5.21
2023-03-29T22:50:08.361Z,5.20
2023-03-29T22:52:36.677Z,5.20
2023-03-29T22:55:05.138Z,5.21
2023-03-29T22:57:33.604Z,5.21
2023-03-29T23:00:02.318Z,5.22
2023-03-29T23:02:30.578Z,5.20
2023-03-29T23:04:58.751Z,5.21
2023-03-29T23:07:28.178Z,5.21
2023-03-29T23:09:56.621Z,5.21
2023-03-29T23:12:24.711Z,5.21
2023-03-29T23:14:53.197Z,5.22
2023-03-29T23:17:21.520Z,5.22
2023-03-29T23:19:49.718Z,5.22
2023-03-29T23:22:17.786Z,5.18
2023-03-29T23:24:47.437Z,5.20
2023-03-29T23:27:16.180Z,5.21
2023-03-29T23:29:45.753Z,5.20
2023-03-29T23:32:15.782Z,5.21
2023-03-29T23:34:44.633Z,5.21
2023-03-29T23:37:12.864Z,5.21
2023-03-29T23:39:41.708Z,5.22
2023-03-29T23:42:10.651Z,5.21
2023-03-29T23:44:38.723Z,5.21
2023-03-29T23:47:07.263Z,5.22
2023-03-29T23:49:36.342Z,5.22
2023-03-29T23:52:04.933Z,5.23
2023-03-29T23:54:33.093Z,5.22
2023-03-29T23:57:01.294Z,5.23
2023-03-29T23:59:29.998Z,5.21
